Time;durP1;ratioP1;P1;durP2;ratioP2;P2;SDS_P1;SDS_P2;PMS_P1;PMS_P2;Temp;Humidity;BMP_temperature;BMP_pressure;BME280_temperature;BME280_humidity;BME280_pressure;Samples;Min_cycle;Max_cycle;Signal;HPM_P1;HPM_P2
2021/01/02 00:00:51;;;;;;;28.63;14.65;;;3.00;72.90;;;;;;4994251;28;20073;-73
2021/01/02 00:03:35;;;;;;;35.25;16.70;;;2.50;72.60;;;;;;4994097;28;20564;-72
2021/01/02 00:06:13;;;;;;;40.28;19.20;;;3.20;73.10;;;;;;4997502;28;20453;-73
2021/01/02 00:08:46;;;;;;;27.60;15.15;;;3.00;72.70;;;;;;4997642;28;20046;-73
2021/01/02 00:11:12;;;;;;;34.40;16.17;;;2.90;72.80;;;;;;5012723;28;20042;-73
2021/01/02 00:13:58;;;;;;;53.95;22.33;;;2.80;73.00;;;;;;4998064;28;20048;-73
2021/01/02 00:16:45;;;;;;;72.80;29.33;;;3.30;73.30;;;;;;4998010;28;20461;-73
2021/01/02 00:19:32;;;;;;;58.35;25.15;;;3.20;73.30;;;;;;4997581;28;20496;-73
2021/01/02 00:22:03;;;;;;;42.28;20.33;;;3.50;73.60;;;;;;4996647;28;20111;-73
2021/01/02 00:24:54;;;;;;;32.47;18.10;;;3.80;73.70;;;;;;4997794;28;20065;-73
2021/01/02 00:27:28;;;;;;;30.52;15.93;;;3.40;73.40;;;;;;4997405;28;20061;-73
2021/01/02 00:30:03;;;;;;;26.35;15.07;;;3.40;73.40;;;;;;4997860;28;20166;-73
2021/01/02 00:32:55;;;;;;;25.25;15.02;;;3.10;73.30;;;;;;4997847;28;20042;-73
2021/01/02 00:35:22;;;;;;;24.83;14.13;;;3.50;73.50;;;;;;4997703;28;20041;-73
2021/01/02 00:37:57;;;;;;;27.05;15.10;;;3.30;73.20;;;;;;4997695;28;20125;-73
2021/01/02 00:40:24;;;;;;;26.40;14.93;;;3.60;73.50;;;;;;5008342;28;20041;-73
2021/01/02 00:42:50;;;;;;;22.35;13.02;;;3.40;73.50;;;;;;5027287;28;20484;-73
2021/01/02 00:45:22;;;;;;;23.42;14.32;;;3.30;73.50;;;;;;5017898;28;20034;-73
2021/01/02 00:47:51;;;;;;;24.60;13.50;;;3.40;73.50;;;;;;5014509;28;20034;-73
2021/01/02 00:50:23;;;;;;;24.85;14.38;;;3.10;73.50;;;;;;5017269;28;20048;-72
2021/01/02 00:52:54;;;;;;;25.10;14.55;;;3.30;73.50;;;;;;5016848;28;20096;-73
2021/01/02 00:55:26;;;;;;;26.33;14.93;;;3.10;73.30;;;;;;5017055;28;20045;-73
2021/01/02 00:58:13;;;;;;;27.77;16.13;;;3.30;73.40;;;;;;5016786;28;20117;-72
2021/01/02 01:00:43;;;;;;;29.55;16.20;;;3.20;73.30;;;;;;5017052;28;20038;-73
2021/01/02 01:03:43;;;;;;;26.10;15.25;;;3.30;73.40;;;;;;5016977;28;20473;-73
2021/01/02 01:06:11;;;;;;;24.48;14.95;;;3.10;73.20;;;;;;5016626;28;20117;-73
2021/01/02 01:08:43;;;;;;;25.30;15.48;;;2.90;73.30;;;;;;5016604;28;20049;-72
2021/01/02 01:11:12;;;;;;;21.80;13.95;;;2.90;73.30;;;;;;5017128;28;20038;-73
2021/01/02 01:13:38;;;;;;;25.90;14.73;;;3.10;73.30;;;;;;5016935;28;20045;-73
2021/01/02 01:16:04;;;;;;;25.45;14.77;;;2.80;73.20;;;;;;5016276;28;20120;-73
2021/01/02 01:18:30;;;;;;;24.50;14.95;;;2.70;73.30;;;;;;5015340;28;20135;-73
2021/01/02 01:21:00;;;;;;;26.38;15.40;;;2.90;73.30;;;;;;5016946;28;20473;-73
2021/01/02 01:23:30;;;;;;;23.00;14.15;;;2.60;73.20;;;;;;5016012;28;20074;-73
2021/01/02 01:26:21;;;;;;;21.55;12.27;;;2.70;73.30;;;;;;5016409;28;20088;-73
2021/01/02 01:28:54;;;;;;;21.45;12.60;;;3.50;73.80;;;;;;5016062;28;20038;-73
2021/01/02 01:31:22;;;;;;;21.17;12.50;;;2.80;73.60;;;;;;5016019;28;20069;-73
2021/01/02 01:33:50;;;;;;;23.95;14.27;;;3.00;73.60;;;;;;5015923;28;20030;-73
2021/01/02 01:36:20;;;;;;;25.98;15.93;;;2.80;73.40;;;;;;5016098;28;20033;-73
2021/01/02 01:38:52;;;;;;;24.55;14.27;;;3.00;73.60;;;;;;5015458;28;20038;-73
2021/01/02 01:41:24;;;;;;;26.58;14.50;;;2.70;73.50;;;;;;5016116;28;20038;-73
2021/01/02 01:43:49;;;;;;;25.30;14.27;;;3.00;73.50;;;;;;5016180;28;20034;-73
2021/01/02 01:46:16;;;;;;;23.20;14.20;;;2.80;73.40;;;;;;5016023;28;20057;-73
2021/01/02 01:49:14;;;;;;;25.60;14.45;;;2.60;73.30;;;;;;5015717;28;20088;-73
2021/01/02 01:52:01;;;;;;;26.45;15.38;;;2.90;73.50;;;;;;5014751;28;20042;-73
2021/01/02 01:55:04;;;;;;;25.77;14.98;;;2.90;73.60;;;;;;5014204;28;20034;-73
2021/01/02 01:57:35;;;;;;;26.33;15.10;;;2.90;74.00;;;;;;5015845;28;20042;-73
2021/01/02 02:00:10;;;;;;;31.40;16.15;;;2.70;73.60;;;;;;5015767;28;20072;-73
2021/01/02 02:02:44;;;;;;;26.17;14.68;;;2.40;73.40;;;;;;5015394;28;20109;-73
2021/01/02 02:05:11;;;;;;;;;;;2.60;73.70;;;;;;5015792;28;20034;-73
2021/01/02 02:07:52;;;;;;;21.33;12.15;;;2.60;73.90;;;;;;5015098;28;19944;-73
2021/01/02 02:10:44;;;;;;;20.92;12.40;;;3.00;74.10;;;;;;5015466;28;20067;-73
2021/01/02 02:13:22;;;;;;;23.77;11.68;;;3.20;74.40;;;;;;5014739;28;20528;-73
2021/01/02 02:15:51;;;;;;;19.55;10.95;;;3.00;74.20;;;;;;5015058;28;20045;-73
2021/01/02 02:18:24;;;;;;;18.75;11.10;;;3.10;74.20;;;;;;5015084;28;20072;-73
2021/01/02 02:20:58;;;;;;;22.40;12.52;;;2.90;74.00;;;;;;5014911;28;20085;-73
2021/01/02 02:23:34;;;;;;;25.63;14.50;;;3.20;74.40;;;;;;5015113;28;20084;-73
2021/01/02 02:26:23;;;;;;;24.40;14.63;;;3.30;74.30;;;;;;5014795;28;20034;-73
2021/01/02 02:29:10;;;;;;;18.75;11.45;;;3.10;73.90;;;;;;5014174;28;20052;-73
2021/01/02 02:31:44;;;;;;;23.20;13.00;;;3.10;74.10;;;;;;5015201;28;20105;-73
2021/01/02 02:34:11;;;;;;;23.73;14.90;;;3.60;74.60;;;;;;5015696;28;20461;-73
2021/01/02 02:36:37;;;;;;;30.75;16.58;;;3.40;74.50;;;;;;5014923;28;20466;-73
2021/01/02 02:39:09;;;;;;;26.92;15.90;;;3.50;74.50;;;;;;5014824;28;20517;-73
2021/01/02 02:41:42;;;;;;;23.52;15.25;;;3.60;74.50;;;;;;5015355;28;20030;-73
2021/01/02 02:44:10;;;;;;;25.50;14.55;;;4.70;74.90;;;;;;5015218;28;20030;-73
2021/01/02 02:46:43;;;;;;;23.70;15.70;;;3.50;74.40;;;;;;5015248;28;20030;-73
2021/01/02 02:49:12;;;;;;;22.90;14.90;;;3.70;74.40;;;;;;5015038;28;20044;-73
2021/01/02 02:52:13;;;;;;;22.50;14.50;;;3.80;74.40;;;;;;5014003;28;20393;-73
2021/01/02 02:54:40;;;;;;;22.52;13.52;;;3.90;74.30;;;;;;5003982;28;20519;-73
2021/01/02 02:57:08;;;;;;;22.85;14.30;;;3.90;74.40;;;;;;5014851;28;20034;-73
2021/01/02 02:59:34;;;;;;;21.75;14.73;;;3.50;74.10;;;;;;5014588;28;20049;-73
2021/01/02 03:02:04;;;;;;;23.88;14.02;;;3.90;74.40;;;;;;5014684;28;20030;-73
2021/01/02 03:04:32;;;;;;;23.98;15.18;;;3.80;74.20;;;;;;5014593;28;20048;-72
2021/01/02 03:07:05;;;;;;;23.13;14.50;;;4.00;74.20;;;;;;5014677;28;20040;-73
2021/01/02 03:09:34;;;;;;;21.65;13.50;;;3.80;74.00;;;;;;5014543;28;20492;-73
2021/01/02 03:12:00;;;;;;;28.92;17.75;;;3.60;73.90;;;;;;5014559;28;20519;-72
2021/01/02 03:14:26;;;;;;;26.35;15.80;;;3.50;73.90;;;;;;5014334;28;20366;-72
2021/01/02 03:16:59;;;;;;;26.17;14.38;;;3.50;74.00;;;;;;5014686;28;20041;-73
2021/01/02 03:19:29;;;;;;;26.02;15.57;;;3.50;73.80;;;;;;5013954;28;20063;-73
2021/01/02 03:21:56;;;;;;;29.27;16.70;;;3.70;74.00;;;;;;5014277;28;20074;-73
2021/01/02 03:24:22;;;;;;;28.08;17.15;;;3.30;73.80;;;;;;5014268;28;20084;-73
2021/01/02 03:26:48;;;;;;;26.38;16.00;;;3.20;73.70;;;;;;5014288;28;20022;-72
2021/01/02 03:29:14;;;;;;;28.15;16.27;;;3.30;74.00;;;;;;5013072;28;20053;-72
2021/01/02 03:31:40;;;;;;;25.40;15.80;;;3.70;74.20;;;;;;5014409;28;20037;-73
2021/01/02 03:34:07;;;;;;;26.75;15.88;;;3.30;74.00;;;;;;5014185;28;20389;-73
2021/01/02 03:36:33;;;;;;;23.55;15.13;;;3.00;73.80;;;;;;5014064;28;20497;-73
2021/01/02 03:38:59;;;;;;;27.88;16.13;;;2.90;73.80;;;;;;5013873;28;20046;-72
2021/01/02 03:41:27;;;;;;;26.63;15.70;;;3.20;74.10;;;;;;5017877;28;20033;-73
2021/01/02 03:43:53;;;;;;;24.77;15.20;;;3.20;74.60;;;;;;5018128;28;20038;-73
2021/01/02 03:46:24;;;;;;;26.33;15.85;;;3.40;74.30;;;;;;5016689;28;20034;-73
2021/01/02 03:48:50;;;;;;;25.58;15.88;;;3.10;74.00;;;;;;5017258;28;20125;-73
2021/01/02 03:51:30;;;;;;;24.40;14.85;;;2.90;73.90;;;;;;5017934;28;20126;-73
2021/01/02 03:53:56;;;;;;;24.23;15.02;;;3.20;74.10;;;;;;5016271;28;20038;-73
2021/01/02 03:56:21;;;;;;;22.92;14.07;;;3.00;74.10;;;;;;5017716;28;20041;-73
2021/01/02 03:58:50;;;;;;;21.48;13.88;;;3.10;74.20;;;;;;5016670;28;20129;-72
2021/01/02 04:01:15;;;;;;;21.80;13.77;;;3.20;74.30;;;;;;5017302;28;20026;-73
2021/01/02 04:03:41;;;;;;;23.42;14.45;;;3.30;74.20;;;;;;5017604;28;20412;-73
2021/01/02 04:06:07;;;;;;;31.02;19.55;;;3.00;74.10;;;;;;5017630;28;20030;-73
2021/01/02 04:08:33;;;;;;;27.27;17.05;;;3.20;74.30;;;;;;5017729;28;20030;-73
2021/01/02 04:10:59;;;;;;;28.17;16.63;;;3.20;74.40;;;;;;5017494;28;20115;-73
2021/01/02 04:13:25;;;;;;;22.65;14.35;;;3.50;74.50;;;;;;5017355;28;20073;-73
2021/01/02 04:15:51;;;;;;;22.13;14.07;;;3.40;74.50;;;;;;5017287;28;20482;-73
2021/01/02 04:18:17;;;;;;;21.73;13.25;;;3.40;74.50;;;;;;5017522;28;20124;-73
2021/01/02 04:20:43;;;;;;;24.38;13.65;;;3.00;74.20;;;;;;5017810;28;20030;-73
2021/01/02 04:23:09;;;;;;;22.05;13.30;;;3.20;74.40;;;;;;5017217;28;20058;-73
2021/01/02 04:25:35;;;;;;;20.83;12.85;;;3.00;74.20;;;;;;5017773;28;20164;-73
2021/01/02 04:28:01;;;;;;;19.35;12.30;;;3.20;74.20;;;;;;5017348;28;20034;-73
2021/01/02 04:30:26;;;;;;;21.15;12.73;;;3.10;74.00;;;;;;5017640;28;20041;-73
2021/01/02 04:32:52;;;;;;;19.92;12.60;;;3.20;74.10;;;;;;5017278;28;20125;-73
2021/01/02 04:35:18;;;;;;;23.05;13.23;;;3.20;74.10;;;;;;5017459;28;20508;-73
2021/01/02 04:37:44;;;;;;;23.13;12.93;;;3.20;74.20;;;;;;5017172;28;20121;-73
2021/01/02 04:40:11;;;;;;;22.30;12.65;;;3.10;74.30;;;;;;5017462;28;20125;-73
2021/01/02 04:42:40;;;;;;;21.00;12.00;;;3.10;74.30;;;;;;5017621;28;20551;-73
2021/01/02 04:45:07;;;;;;;20.60;11.20;;;3.00;74.30;;;;;;5017035;28;20040;-73
2021/01/02 04:47:34;;;;;;;16.67;10.90;;;3.50;74.50;;;;;;5016005;28;20125;-73
2021/01/02 04:49:59;;;;;;;18.15;10.90;;;2.80;74.20;;;;;;5016998;28;20397;-73
2021/01/02 04:52:26;;;;;;;18.77;11.07;;;3.10;74.40;;;;;;5016091;28;20038;-73
2021/01/02 04:54:51;;;;;;;18.73;11.27;;;3.00;74.30;;;;;;5016756;28;20030;-73
2021/01/02 04:57:18;;;;;;;21.05;12.13;;;3.00;74.30;;;;;;5016895;28;20041;-73
2021/01/02 04:59:50;;;;;;;21.73;11.63;;;3.00;74.30;;;;;;5015871;28;20041;-73
2021/01/02 05:02:20;;;;;;;19.77;11.57;;;2.90;74.20;;;;;;5017168;28;20033;-73
2021/01/02 05:04:47;;;;;;;20.85;12.63;;;2.70;74.10;;;;;;5017016;28;20084;-73
2021/01/02 05:07:34;;;;;;;22.10;12.98;;;3.00;74.30;;;;;;5016626;28;20437;-72
2021/01/02 05:10:00;;;;;;;24.65;13.63;;;2.50;74.10;;;;;;5016569;28;20052;-73
2021/01/02 05:12:34;;;;;;;23.90;13.55;;;2.80;74.30;;;;;;5017005;28;20034;-73
2021/01/02 05:15:10;;;;;;;21.75;13.05;;;2.70;74.30;;;;;;5017419;28;20649;-73
2021/01/02 05:17:38;;;;;;;21.88;12.90;;;2.90;74.40;;;;;;5016473;28;20362;-73
2021/01/02 05:20:14;;;;;;;24.52;12.77;;;2.80;74.40;;;;;;5016716;28;20042;-73
2021/01/02 05:22:41;;;;;;;20.58;14.13;;;2.70;74.40;;;;;;5016079;28;20069;-73
2021/01/02 05:25:17;;;;;;;25.15;15.32;;;2.80;74.50;;;;;;5016480;28;20057;-73
2021/01/02 05:27:48;;;;;;;22.90;15.52;;;2.60;74.40;;;;;;5016119;28;20041;-73
2021/01/02 05:30:29;;;;;;;20.73;12.38;;;3.10;74.80;;;;;;5015848;28;20042;-73
2021/01/02 05:33:10;;;;;;;18.45;11.25;;;3.00;74.90;;;;;;5014511;28;20121;-73
2021/01/02 05:35:42;;;;;;;19.65;11.60;;;2.90;74.90;;;;;;5015019;28;20397;-73
2021/01/02 05:38:22;;;;;;;17.17;10.98;;;3.10;75.00;;;;;;5015977;28;20083;-72
2021/01/02 05:40:50;;;;;;;15.25;10.15;;;3.00;75.00;;;;;;5014344;28;20034;-73
2021/01/02 05:43:19;;;;;;;18.33;10.73;;;3.20;75.00;;;;;;5015543;28;20072;-73
2021/01/02 05:45:46;;;;;;;17.70;10.73;;;3.30;75.10;;;;;;5015994;28;20061;-72
2021/01/02 05:48:17;;;;;;;18.52;10.70;;;3.40;75.10;;;;;;5014082;28;20063;-73
2021/01/02 05:50:45;;;;;;;16.55;10.35;;;3.30;75.00;;;;;;5015718;28;20037;-73
2021/01/02 05:53:31;;;;;;;16.13;10.15;;;3.70;75.30;;;;;;5014247;28;20049;-73
2021/01/02 05:56:12;;;;;;;17.13;10.70;;;3.40;75.10;;;;;;5015572;28;20073;-73
2021/01/02 05:58:43;;;;;;;18.80;11.38;;;3.40;75.20;;;;;;5015645;28;20034;-73
2021/01/02 06:01:11;;;;;;;16.13;10.30;;;3.40;75.10;;;;;;5015304;28;20045;-72
2021/01/02 06:03:39;;;;;;;20.67;12.55;;;3.70;75.20;;;;;;5014143;28;20076;-73
2021/01/02 06:06:07;;;;;;;18.02;12.00;;;3.40;75.00;;;;;;5015145;28;20390;-73
2021/01/02 06:08:49;;;;;;;18.83;12.45;;;3.50;74.90;;;;;;5015280;28;20041;-73
2021/01/02 06:11:22;;;;;;;21.60;13.68;;;3.20;74.60;;;;;;5015488;28;20038;-73
2021/01/02 06:13:51;;;;;;;23.75;14.50;;;3.40;74.80;;;;;;5015551;28;20034;-73
2021/01/02 06:16:17;;;;;;;22.63;14.38;;;3.50;74.90;;;;;;5014212;28;20135;-73
2021/01/02 06:18:46;;;;;;;19.58;13.27;;;3.30;74.70;;;;;;5015325;28;20026;-73
2021/01/02 06:21:19;;;;;;;22.00;12.45;;;3.40;74.70;;;;;;5015672;28;20038;-73
2021/01/02 06:23:47;;;;;;;20.42;12.88;;;3.60;74.80;;;;;;5014678;28;20128;-73
2021/01/02 06:26:14;;;;;;;29.15;17.92;;;3.10;74.60;;;;;;5015409;28;20037;-73
2021/01/02 06:28:42;;;;;;;22.33;15.15;;;3.20;74.70;;;;;;5015018;28;20060;-73
2021/01/02 06:31:15;;;;;;;21.35;13.90;;;3.40;74.80;;;;;;5015259;28;20033;-72
2021/01/02 06:33:49;;;;;;;23.13;12.90;;;3.10;74.70;;;;;;5014701;28;20038;-73
2021/01/02 06:36:29;;;;;;;21.17;13.18;;;3.10;74.70;;;;;;5014777;28;20033;-73
2021/01/02 06:39:17;;;;;;;22.30;13.50;;;3.20;74.90;;;;;;5013378;28;20409;-73
2021/01/02 06:41:43;;;;;;;23.25;13.05;;;3.30;75.00;;;;;;5015121;28;20030;-73
2021/01/02 06:44:09;;;;;;;25.48;15.52;;;3.20;75.00;;;;;;5014992;28;20552;-73
2021/01/02 06:46:35;;;;;;;24.63;16.35;;;3.40;75.10;;;;;;5010898;28;20038;-73
2021/01/02 06:49:31;;;;;;;24.55;14.68;;;2.90;74.60;;;;;;4995262;28;20080;-73
2021/01/02 06:51:57;;;;;;;24.42;15.05;;;3.10;74.70;;;;;;4995186;28;20137;-73
2021/01/02 06:54:23;;;;;;;22.85;14.27;;;3.20;74.80;;;;;;4994746;28;20571;-73
2021/01/02 06:57:04;;;;;;;24.42;14.02;;;3.10;74.70;;;;;;4994037;28;20042;-73
2021/01/02 06:59:30;;;;;;;23.33;15.45;;;3.10;74.60;;;;;;4993940;28;20137;-73
2021/01/02 07:01:56;;;;;;;23.95;15.30;;;3.10;74.70;;;;;;4994934;28;20065;-73
2021/01/02 07:04:38;;;;;;;22.38;14.65;;;3.50;74.80;;;;;;4996913;28;20062;-73
2021/01/02 07:07:06;;;;;;;22.83;14.38;;;3.50;74.70;;;;;;5007450;28;20069;-72
2021/01/02 07:09:32;;;;;;;25.08;14.93;;;3.10;74.50;;;;;;5013994;28;20049;-73
2021/01/02 07:12:08;;;;;;;23.73;14.63;;;3.20;74.50;;;;;;5014583;28;20129;-73
2021/01/02 07:14:35;;;;;;;23.70;13.77;;;3.30;74.60;;;;;;5012855;28;20118;-73
2021/01/02 07:17:11;;;;;;;20.27;13.27;;;3.10;74.60;;;;;;5005295;28;20117;-73
2021/01/02 07:19:42;;;;;;;27.05;15.43;;;3.10;74.40;;;;;;4994572;28;20042;-73
2021/01/02 07:22:24;;;;;;;22.30;13.98;;;3.00;74.30;;;;;;4994517;28;20034;-74
2021/01/02 07:25:00;;;;;;;22.38;13.82;;;2.90;74.20;;;;;;5010160;28;20481;-73
2021/01/02 07:27:40;;;;;;;24.38;14.23;;;3.30;74.40;;;;;;4994942;28;20034;-73
2021/01/02 07:30:09;;;;;;;24.52;15.38;;;3.20;74.40;;;;;;5009684;28;20124;-73
2021/01/02 07:32:39;;;;;;;21.05;12.98;;;2.80;74.30;;;;;;5010018;28;20465;-73
2021/01/02 07:35:08;;;;;;;19.60;12.52;;;2.90;74.30;;;;;;4994821;28;20053;-73
2021/01/02 07:37:36;;;;;;;21.25;12.70;;;2.90;74.30;;;;;;4993573;28;20039;-73
2021/01/02 07:40:08;;;;;;;28.13;16.98;;;2.90;74.30;;;;;;4994864;28;20097;-72
2021/01/02 07:42:37;;;;;;;39.90;22.75;;;2.70;74.10;;;;;;4994560;28;20363;-73
2021/01/02 07:45:11;;;;;;;37.10;21.02;;;2.90;74.30;;;;;;4994198;28;20538;-73
2021/01/02 07:47:38;;;;;;;37.50;21.63;;;2.80;74.20;;;;;;5003555;28;20038;-74
2021/01/02 07:50:12;;;;;;;38.58;22.65;;;2.60;74.10;;;;;;5002937;28;20033;-73
2021/01/02 07:52:49;;;;;;;34.47;20.60;;;2.90;74.30;;;;;;5004625;28;20038;-73
2021/01/02 07:55:16;;;;;;;35.15;20.52;;;2.80;74.30;;;;;;5009415;28;20038;-73
2021/01/02 07:57:42;;;;;;;28.30;17.73;;;2.50;74.10;;;;;;5005407;28;20082;-73
2021/01/02 08:00:09;;;;;;;33.47;18.75;;;2.80;74.70;;;;;;5002847;28;20037;-73
2021/01/02 08:02:39;;;;;;;29.85;18.30;;;2.60;74.00;;;;;;5009087;28;20030;-74
2021/01/02 08:05:08;;;;;;;31.55;17.63;;;2.60;74.10;;;;;;4997022;28;20081;-73
2021/01/02 08:07:33;;;;;;;31.67;18.83;;;2.80;74.10;;;;;;4993074;28;20035;-73
2021/01/02 08:09:59;;;;;;;31.08;17.23;;;2.70;74.10;;;;;;4993875;28;20555;-74
2021/01/02 08:12:25;;;;;;;28.92;17.52;;;2.70;74.10;;;;;;4994570;28;20057;-74
2021/01/02 08:14:51;;;;;;;27.90;17.58;;;2.70;74.10;;;;;;4993127;28;20038;-73
2021/01/02 08:17:18;;;;;;;28.33;16.52;;;2.60;74.10;;;;;;4999549;28;20037;-73
2021/01/02 08:19:47;;;;;;;31.10;19.10;;;3.00;74.20;;;;;;5007608;28;20042;-73
2021/01/02 08:22:25;;;;;;;31.73;19.33;;;2.80;74.00;;;;;;4993019;28;20034;-74
2021/01/02 08:24:55;;;;;;;31.48;19.75;;;3.00;74.00;;;;;;5005458;28;20042;-73
2021/01/02 08:27:22;;;;;;;30.98;18.63;;;2.80;73.80;;;;;;5015485;28;20042;-73
2021/01/02 08:29:48;;;;;;;34.58;19.10;;;3.10;73.90;;;;;;5010940;28;20054;-73
2021/01/02 08:32:15;;;;;;;27.77;17.38;;;3.70;73.80;;;;;;5003505;28;20038;-74
2021/01/02 08:34:45;;;;;;;24.77;15.68;;;4.30;73.50;;;;;;5015354;28;20049;-73
2021/01/02 08:37:14;;;;;;;24.77;15.10;;;4.50;72.80;;;;;;5016242;28;20037;-74
2021/01/02 08:39:41;;;;;;;24.33;15.75;;;4.40;72.20;;;;;;5015624;28;20046;-73
2021/01/02 08:42:08;;;;;;;22.05;14.60;;;4.60;71.90;;;;;;5012052;28;20037;-73
2021/01/02 08:44:42;;;;;;;30.25;14.77;;;5.20;71.80;;;;;;5007318;28;20116;-74
2021/01/02 08:47:07;;;;;;;21.17;14.15;;;6.20;71.40;;;;;;5013257;28;20084;-73
2021/01/02 08:49:41;;;;;;;22.92;16.20;;;6.90;70.50;;;;;;5013699;28;20038;-74
2021/01/02 08:52:26;;;;;;;23.05;15.82;;;8.10;69.10;;;;;;5016496;28;20041;-74
2021/01/02 08:55:08;;;;;;;25.23;16.67;;;8.90;67.50;;;;;;5015653;28;20065;-73
2021/01/02 08:57:35;;;;;;;22.38;15.73;;;9.80;65.50;;;;;;5016935;28;20034;-71
2021/01/02 09:00:18;;;;;;;22.20;15.70;;;10.80;64.20;;;;;;5016845;28;20074;-72
2021/01/02 09:02:57;;;;;;;22.25;15.60;;;10.50;62.20;;;;;;5013081;28;20030;-74
2021/01/02 09:05:31;;;;;;;22.42;15.70;;;10.50;62.20;;;;;;5015522;28;20560;-71
2021/01/02 09:08:09;;;;;;;22.25;14.85;;;10.70;61.90;;;;;;5015860;28;20022;-72
2021/01/02 09:10:43;;;;;;;19.90;14.60;;;11.30;61.60;;;;;;5013870;28;20041;-72
2021/01/02 09:13:16;;;;;;;18.77;14.02;;;11.60;59.90;;;;;;5014385;28;20038;-73
2021/01/02 09:15:44;;;;;;;20.25;15.10;;;11.50;59.50;;;;;;5015614;28;20044;-73
2021/01/02 09:18:15;;;;;;;20.75;14.65;;;11.10;59.80;;;;;;5014000;28;20109;-73
2021/01/02 09:20:41;;;;;;;116.72;56.13;;;10.90;59.60;;;;;;5014322;28;20034;-76
2021/01/02 09:23:08;;;;;;;285.15;114.68;;;10.50;59.50;;;;;;5013830;28;20176;-74
2021/01/02 09:25:34;;;;;;;239.55;105.60;;;10.10;59.60;;;;;;5015221;28;20084;-76
2021/01/02 09:28:42;;;;;;;19.27;13.35;;;9.70;59.90;;;;;;5014464;28;20042;-75
2021/01/02 09:31:07;;;;;;;17.35;11.63;;;9.50;59.90;;;;;;4992800;28;20529;-75
2021/01/02 09:33:33;;;;;;;26.48;19.08;;;9.30;60.90;;;;;;5013163;28;20036;-76
2021/01/02 09:35:59;;;;;;;27.17;18.23;;;9.30;61.70;;;;;;5013804;28;20519;-76
2021/01/02 09:38:25;;;;;;;20.67;15.30;;;9.10;62.80;;;;;;5014886;28;20088;-76
2021/01/02 09:40:50;;;;;;;25.30;18.13;;;9.30;63.10;;;;;;5013623;28;20041;-76
2021/01/02 09:43:17;;;;;;;16.05;11.55;;;9.30;63.10;;;;;;5015342;28;20038;-77
2021/01/02 09:45:43;;;;;;;13.25;10.57;;;9.30;62.70;;;;;;5015825;28;20076;-77
2021/01/02 09:48:10;;;;;;;14.50;11.00;;;9.50;63.40;;;;;;5013847;28;20493;-74
2021/01/02 09:50:37;;;;;;;14.43;11.85;;;9.40;64.10;;;;;;5015398;28;20044;-73
2021/01/02 09:53:04;;;;;;;16.05;11.55;;;9.20;64.60;;;;;;5015434;28;20065;-74
2021/01/02 09:55:30;;;;;;;14.65;11.10;;;9.20;65.50;;;;;;5013428;28;20041;-77
2021/01/02 09:57:56;;;;;;;15.90;11.85;;;9.00;65.20;;;;;;5014168;28;20038;-77
2021/01/02 10:00:23;;;;;;;15.93;12.00;;;8.90;64.50;;;;;;5015254;28;20128;-76
2021/01/02 10:02:49;;;;;;;16.02;13.15;;;8.40;64.50;;;;;;5013387;28;20042;-76
2021/01/02 10:05:17;;;;;;;18.75;13.35;;;8.20;65.60;;;;;;5014963;28;20026;-76
2021/01/02 10:07:44;;;;;;;19.88;14.68;;;8.00;66.40;;;;;;5013613;28;20044;-76
2021/01/02 10:10:11;;;;;;;19.92;14.32;;;7.70;67.20;;;;;;5013216;28;20405;-76
2021/01/02 10:12:37;;;;;;;19.88;13.65;;;7.70;67.70;;;;;;5013761;28;20038;-75
2021/01/02 10:15:04;;;;;;;15.73;12.18;;;7.50;67.70;;;;;;5014748;28;20401;-76
2021/01/02 10:17:30;;;;;;;18.38;12.90;;;7.50;67.60;;;;;;5014054;28;20042;-75
2021/01/02 10:19:56;;;;;;;17.30;12.95;;;7.20;67.00;;;;;;5014319;28;20045;-76
2021/01/02 10:22:23;;;;;;;17.98;12.52;;;7.20;67.50;;;;;;5013493;28;20481;-75
2021/01/02 10:24:52;;;;;;;18.80;13.20;;;7.10;67.40;;;;;;5013835;28;20033;-75
2021/01/02 10:27:19;;;;;;;16.15;11.32;;;7.10;67.80;;;;;;5014755;28;20077;-75
2021/01/02 10:29:46;;;;;;;15.27;11.77;;;7.10;68.00;;;;;;5014530;28;20052;-76
2021/01/02 10:32:14;;;;;;;15.95;11.35;;;7.00;68.10;;;;;;5012772;28;20048;-75
2021/01/02 10:34:42;;;;;;;15.95;11.70;;;6.90;68.20;;;;;;5014469;28;20065;-75
2021/01/02 10:37:09;;;;;;;15.43;10.70;;;7.00;68.30;;;;;;5014527;28;20036;-75
2021/01/02 10:39:42;;;;;;;16.17;10.98;;;7.20;68.50;;;;;;5014015;28;20060;-76
2021/01/02 10:42:10;;;;;;;15.77;11.82;;;7.10;68.50;;;;;;5013323;28;20222;-74
2021/01/02 10:44:36;;;;;;;18.15;12.90;;;7.30;68.80;;;;;;5013048;28;20104;-74
2021/01/02 10:47:03;;;;;;;18.90;12.10;;;7.20;69.00;;;;;;5013544;28;20034;-73
2021/01/02 10:49:29;;;;;;;17.38;11.48;;;7.30;69.10;;;;;;5013573;28;20052;-73
2021/01/02 10:51:55;;;;;;;16.48;11.60;;;7.20;69.10;;;;;;5014688;28;20493;-73
2021/01/02 10:54:21;;;;;;;16.85;11.23;;;7.00;69.30;;;;;;5014672;28;20034;-73
2021/01/02 10:56:49;;;;;;;15.82;11.93;;;7.10;69.70;;;;;;5014443;28;20045;-73
2021/01/02 10:59:16;;;;;;;21.73;15.18;;;7.10;69.90;;;;;;5007238;28;20030;-73
2021/01/02 11:01:44;;;;;;;17.25;13.10;;;7.20;70.00;;;;;;5005774;28;20173;-73
2021/01/02 11:04:11;;;;;;;15.27;11.15;;;7.30;70.20;;;;;;5011739;28;20037;-73
2021/01/02 11:06:39;;;;;;;29.73;15.98;;;7.40;70.40;;;;;;4994922;28;20034;-73
2021/01/02 11:09:06;;;;;;;29.20;14.75;;;7.50;70.50;;;;;;5009789;28;20132;-73
2021/01/02 11:11:33;;;;;;;16.58;10.15;;;7.70;70.60;;;;;;4993930;28;20541;-73
2021/01/02 11:13:59;;;;;;;13.65;10.77;;;7.80;71.20;;;;;;4996383;28;20031;-73
2021/01/02 11:16:32;;;;;;;13.65;9.70;;;8.00;70.90;;;;;;5013436;28;20390;-72
2021/01/02 11:18:59;;;;;;;15.85;10.60;;;8.30;71.10;;;;;;5014383;28;20032;-73
2021/01/02 11:21:25;;;;;;;14.77;10.57;;;7.90;71.10;;;;;;5014800;28;20038;-72
2021/01/02 11:23:51;;;;;;;16.40;10.18;;;8.00;71.20;;;;;;5006927;28;20054;-72
2021/01/02 11:26:17;;;;;;;16.92;11.10;;;7.90;71.40;;;;;;5014478;28;20025;-72
2021/01/02 11:28:43;;;;;;;14.85;10.98;;;8.00;71.40;;;;;;5004577;28;20386;-72
2021/01/02 11:31:09;;;;;;;15.57;11.63;;;8.10;71.30;;;;;;4993668;28;20108;-72
2021/01/02 11:33:36;;;;;;;16.67;11.40;;;8.00;71.00;;;;;;5010857;28;20394;-72
2021/01/02 11:36:02;;;;;;;14.65;10.90;;;8.10;70.90;;;;;;5014323;28;20089;-72
2021/01/02 11:38:28;;;;;;;13.45;10.32;;;8.20;70.90;;;;;;5012883;28;20050;-72
2021/01/02 11:40:53;;;;;;;15.75;11.15;;;8.20;71.40;;;;;;5013607;28;20437;-72
2021/01/02 11:43:19;;;;;;;15.57;10.52;;;8.10;70.80;;;;;;5004726;28;20084;-71
2021/01/02 11:45:47;;;;;;;14.52;11.60;;;8.20;70.70;;;;;;4993970;28;20036;-72
2021/01/02 11:48:14;;;;;;;21.10;14.90;;;8.20;70.90;;;;;;4994003;28;20041;-73
2021/01/02 11:50:41;;;;;;;17.05;12.80;;;8.70;71.20;;;;;;4993059;28;20042;-73
2021/01/02 11:53:07;;;;;;;16.85;11.57;;;8.30;71.10;;;;;;4993789;28;20034;-72
2021/01/02 11:55:33;;;;;;;14.98;11.25;;;8.30;70.90;;;;;;4994327;28;20038;-72
2021/01/02 11:58:00;;;;;;;14.65;10.25;;;8.30;70.90;;;;;;4994154;28;20108;-72
2021/01/02 12:00:27;;;;;;;12.43;9.18;;;8.40;71.10;;;;;;4994884;28;20494;-73
2021/01/02 12:02:53;;;;;;;14.45;8.70;;;8.50;71.10;;;;;;4996979;28;20437;-73
2021/01/02 12:05:19;;;;;;;15.25;11.63;;;8.80;71.30;;;;;;4998228;28;20105;-73
2021/01/02 12:07:45;;;;;;;15.43;10.68;;;8.70;71.10;;;;;;4997939;28;20034;-73
2021/01/02 12:10:11;;;;;;;15.30;11.20;;;8.90;71.20;;;;;;4997802;28;20086;-73
2021/01/02 12:12:37;;;;;;;16.17;11.27;;;9.00;71.20;;;;;;4997601;28;20070;-72
2021/01/02 12:15:04;;;;;;;16.75;9.98;;;9.30;71.10;;;;;;4998013;28;20576;-73
2021/01/02 12:17:30;;;;;;;15.30;10.23;;;9.30;70.90;;;;;;4997842;28;20064;-72
2021/01/02 12:19:59;;;;;;;11.95;8.35;;;9.70;70.80;;;;;;4998214;28;20489;-73
2021/01/02 12:22:28;;;;;;;10.88;7.93;;;9.80;70.90;;;;;;4996715;28;20070;-73
2021/01/02 12:24:54;;;;;;;16.00;11.15;;;10.00;70.80;;;;;;4996369;28;20038;-74
2021/01/02 12:27:20;;;;;;;16.27;11.43;;;10.10;70.80;;;;;;4995983;28;20045;-73
2021/01/02 12:29:45;;;;;;;10.50;8.32;;;10.20;70.50;;;;;;4997263;28;20050;-72
2021/01/02 12:32:12;;;;;;;16.77;12.30;;;10.10;70.20;;;;;;4997824;28;20064;-73
2021/01/02 12:34:40;;;;;;;14.43;9.95;;;10.00;70.20;;;;;;4993889;28;20042;-73
2021/01/02 12:37:12;;;;;;;14.27;10.35;;;10.00;70.30;;;;;;4995029;28;20069;-74
2021/01/02 12:39:40;;;;;;;14.40;9.18;;;10.20;70.50;;;;;;5004637;28;20454;-75
2021/01/02 12:42:06;;;;;;;14.32;9.43;;;10.40;70.60;;;;;;5014546;28;20038;-73
2021/01/02 12:44:32;;;;;;;10.50;8.13;;;10.20;70.60;;;;;;5015340;28;20604;-73
2021/01/02 12:47:07;;;;;;;9.52;7.10;;;10.20;70.50;;;;;;5014874;28;20124;-73
2021/01/02 12:49:33;;;;;;;10.65;6.80;;;10.50;70.60;;;;;;5015054;28;20409;-74
2021/01/02 12:52:03;;;;;;;9.13;7.10;;;10.60;70.60;;;;;;5014863;28;20034;-74